sensor_id;sensor_type;location;lat;lon;timestamp;P1;durP1;ratioP1;P2;durP2;ratioP2
15381;SDS011;7789;51.364;12.358;2024-01-06T00:05:01;4.63;;;2.63;;
15381;SDS011;7789;51.364;12.358;2024-01-06T00:10:09;3.47;;;2.23;;
15381;SDS011;7789;51.364;12.358;2024-01-06T00:15:16;7.47;;;3.00;;
15381;SDS011;7789;51.364;12.358;2024-01-06T00:20:19;4.23;;;2.80;;
15381;SDS011;7789;51.364;12.358;2024-01-06T00:25:24;4.60;;;2.83;;
15381;SDS011;7789;51.364;12.358;2024-01-06T00:30:27;5.80;;;3.07;;
15381;SDS011;7789;51.364;12.358;2024-01-06T00:35:31;6.27;;;3.03;;
15381;SDS011;7789;51.364;12.358;2024-01-06T00:40:36;4.67;;;2.50;;
15381;SDS011;7789;51.364;12.358;2024-01-06T00:45:39;6.33;;;3.30;;
15381;SDS011;7789;51.364;12.358;2024-01-06T00:50:42;4.00;;;2.70;;
15381;SDS011;7789;51.364;12.358;2024-01-06T00:55:47;7.30;;;2.73;;
15381;SDS011;7789;51.364;12.358;2024-01-06T01:00:51;6.13;;;3.17;;
15381;SDS011;7789;51.364;12.358;2024-01-06T01:05:55;4.40;;;2.70;;
15381;SDS011;7789;51.364;12.358;2024-01-06T01:11:10;6.40;;;2.90;;
15381;SDS011;7789;51.364;12.358;2024-01-06T01:16:30;4.00;;;2.63;;
15381;SDS011;7789;51.364;12.358;2024-01-06T01:21:38;4.93;;;2.73;;
15381;SDS011;7789;51.364;12.358;2024-01-06T01:27:02;5.63;;;2.70;;
15381;SDS011;7789;51.364;12.358;2024-01-06T01:32:10;5.83;;;2.53;;
15381;SDS011;7789;51.364;12.358;2024-01-06T01:37:27;4.70;;;2.77;;
15381;SDS011;7789;51.364;12.358;2024-01-06T01:42:32;5.53;;;3.27;;
15381;SDS011;7789;51.364;12.358;2024-01-06T01:47:37;6.20;;;3.10;;
15381;SDS011;7789;51.364;12.358;2024-01-06T01:52:41;6.13;;;3.40;;
15381;SDS011;7789;51.364;12.358;2024-01-06T01:57:46;7.13;;;3.30;;
15381;SDS011;7789;51.364;12.358;2024-01-06T02:02:50;8.67;;;3.30;;
15381;SDS011;7789;51.364;12.358;2024-01-06T02:07:54;6.50;;;3.03;;
15381;SDS011;7789;51.364;12.358;2024-01-06T02:13:08;5.80;;;3.17;;
15381;SDS011;7789;51.364;12.358;2024-01-06T02:18:13;7.17;;;3.40;;
15381;SDS011;7789;51.364;12.358;2024-01-06T02:23:19;6.83;;;3.30;;
15381;SDS011;7789;51.364;12.358;2024-01-06T02:28:23;4.67;;;2.87;;
15381;SDS011;7789;51.364;12.358;2024-01-06T02:33:27;6.93;;;3.30;;
15381;SDS011;7789;51.364;12.358;2024-01-06T02:38:32;5.40;;;3.10;;
15381;SDS011;7789;51.364;12.358;2024-01-06T02:43:35;5.37;;;3.20;;
15381;SDS011;7789;51.364;12.358;2024-01-06T02:48:39;6.43;;;3.47;;
15381;SDS011;7789;51.364;12.358;2024-01-06T02:53:44;4.90;;;3.20;;
15381;SDS011;7789;51.364;12.358;2024-01-06T02:58:47;6.10;;;3.30;;
15381;SDS011;7789;51.364;12.358;2024-01-06T03:03:51;5.43;;;3.47;;
15381;SDS011;7789;51.364;12.358;2024-01-06T03:08:56;5.20;;;3.47;;
15381;SDS011;7789;51.364;12.358;2024-01-06T03:13:59;4.50;;;3.40;;
15381;SDS011;7789;51.364;12.358;2024-01-06T03:19:03;9.53;;;4.20;;
15381;SDS011;7789;51.364;12.358;2024-01-06T03:24:08;7.77;;;4.10;;
15381;SDS011;7789;51.364;12.358;2024-01-06T03:29:11;9.30;;;3.70;;
15381;SDS011;7789;51.364;12.358;2024-01-06T03:34:15;8.13;;;3.63;;
15381;SDS011;7789;51.364;12.358;2024-01-06T03:39:20;6.67;;;3.40;;
15381;SDS011;7789;51.364;12.358;2024-01-06T03:44:23;8.93;;;3.97;;
15381;SDS011;7789;51.364;12.358;2024-01-06T03:49:26;8.07;;;3.63;;
15381;SDS011;7789;51.364;12.358;2024-01-06T03:54:32;6.53;;;3.13;;
15381;SDS011;7789;51.364;12.358;2024-01-06T03:59:35;5.93;;;3.07;;
15381;SDS011;7789;51.364;12.358;2024-01-06T04:04:38;5.63;;;3.33;;
15381;SDS011;7789;51.364;12.358;2024-01-06T04:09:43;5.77;;;3.47;;
15381;SDS011;7789;51.364;12.358;2024-01-06T04:14:47;7.33;;;3.20;;
15381;SDS011;7789;51.364;12.358;2024-01-06T04:19:50;7.73;;;3.73;;
15381;SDS011;7789;51.364;12.358;2024-01-06T04:24:55;7.30;;;3.30;;
15381;SDS011;7789;51.364;12.358;2024-01-06T04:29:59;7.43;;;3.80;;
15381;SDS011;7789;51.364;12.358;2024-01-06T04:35:02;5.10;;;3.03;;
15381;SDS011;7789;51.364;12.358;2024-01-06T04:40:08;5.53;;;3.90;;
15381;SDS011;7789;51.364;12.358;2024-01-06T04:45:12;5.57;;;3.33;;
15381;SDS011;7789;51.364;12.358;2024-01-06T04:50:16;6.37;;;3.27;;
15381;SDS011;7789;51.364;12.358;2024-01-06T04:55:21;10.43;;;4.00;;
15381;SDS011;7789;51.364;12.358;2024-01-06T05:00:24;6.93;;;3.70;;
15381;SDS011;7789;51.364;12.358;2024-01-06T05:05:28;6.03;;;3.60;;
15381;SDS011;7789;51.364;12.358;2024-01-06T05:10:33;6.03;;;3.70;;
15381;SDS011;7789;51.364;12.358;2024-01-06T05:15:36;5.60;;;3.50;;
15381;SDS011;7789;51.364;12.358;2024-01-06T05:20:39;6.47;;;3.43;;
15381;SDS011;7789;51.364;12.358;2024-01-06T05:25:45;7.43;;;4.03;;
15381;SDS011;7789;51.364;12.358;2024-01-06T05:30:49;10.40;;;3.90;;
15381;SDS011;7789;51.364;12.358;2024-01-06T05:35:52;7.77;;;4.63;;
15381;SDS011;7789;51.364;12.358;2024-01-06T05:40:58;7.30;;;3.90;;
15381;SDS011;7789;51.364;12.358;2024-01-06T05:46:01;8.27;;;3.93;;
15381;SDS011;7789;51.364;12.358;2024-01-06T05:51:05;7.43;;;3.93;;
15381;SDS011;7789;51.364;12.358;2024-01-06T05:56:10;6.50;;;3.77;;
15381;SDS011;7789;51.364;12.358;2024-01-06T06:01:13;9.40;;;4.33;;
15381;SDS011;7789;51.364;12.358;2024-01-06T06:06:19;10.23;;;5.10;;
15381;SDS011;7789;51.364;12.358;2024-01-06T06:11:24;8.60;;;4.30;;
15381;SDS011;7789;51.364;12.358;2024-01-06T06:16:27;6.10;;;4.27;;
15381;SDS011;7789;51.364;12.358;2024-01-06T06:21:33;9.53;;;4.67;;
15381;SDS011;7789;51.364;12.358;2024-01-06T06:26:38;11.43;;;4.20;;
15381;SDS011;7789;51.364;12.358;2024-01-06T06:31:43;7.07;;;4.00;;
15381;SDS011;7789;51.364;12.358;2024-01-06T06:36:48;8.33;;;4.60;;
15381;SDS011;7789;51.364;12.358;2024-01-06T06:41:53;8.03;;;4.53;;
15381;SDS011;7789;51.364;12.358;2024-01-06T06:46:56;7.30;;;4.80;;
15381;SDS011;7789;51.364;12.358;2024-01-06T06:52:00;8.60;;;4.63;;
15381;SDS011;7789;51.364;12.358;2024-01-06T06:57:06;7.17;;;4.20;;
15381;SDS011;7789;51.364;12.358;2024-01-06T07:02:10;5.93;;;3.93;;
15381;SDS011;7789;51.364;12.358;2024-01-06T07:07:13;6.33;;;4.37;;
15381;SDS011;7789;51.364;12.358;2024-01-06T07:12:18;8.27;;;4.30;;
15381;SDS011;7789;51.364;12.358;2024-01-06T07:17:21;8.80;;;4.40;;
15381;SDS011;7789;51.364;12.358;2024-01-06T07:22:25;9.70;;;4.57;;
15381;SDS011;7789;51.364;12.358;2024-01-06T07:27:30;10.73;;;4.67;;
15381;SDS011;7789;51.364;12.358;2024-01-06T07:32:34;5.73;;;4.07;;
15381;SDS011;7789;51.364;12.358;2024-01-06T07:37:41;9.67;;;5.33;;
15381;SDS011;7789;51.364;12.358;2024-01-06T07:42:45;11.60;;;4.40;;
15381;SDS011;7789;51.364;12.358;2024-01-06T07:47:49;8.17;;;4.17;;
15381;SDS011;7789;51.364;12.358;2024-01-06T07:52:53;8.90;;;4.30;;
15381;SDS011;7789;51.364;12.358;2024-01-06T07:57:58;7.37;;;4.20;;
15381;SDS011;7789;51.364;12.358;2024-01-06T08:03:02;6.93;;;3.73;;
15381;SDS011;7789;51.364;12.358;2024-01-06T08:08:07;6.00;;;3.90;;
15381;SDS011;7789;51.364;12.358;2024-01-06T08:13:12;8.00;;;3.87;;
15381;SDS011;7789;51.364;12.358;2024-01-06T08:18:16;6.87;;;3.67;;
15381;SDS011;7789;51.364;12.358;2024-01-06T08:23:20;8.50;;;4.47;;
15381;SDS011;7789;51.364;12.358;2024-01-06T08:28:25;9.90;;;3.53;;
15381;SDS011;7789;51.364;12.358;2024-01-06T08:33:28;8.63;;;4.30;;
15381;SDS011;7789;51.364;12.358;2024-01-06T08:38:32;7.30;;;3.80;;
15381;SDS011;7789;51.364;12.358;2024-01-06T08:43:37;11.10;;;4.03;;
15381;SDS011;7789;51.364;12.358;2024-01-06T08:48:40;7.53;;;4.00;;
15381;SDS011;7789;51.364;12.358;2024-01-06T08:53:47;5.80;;;3.97;;
15381;SDS011;7789;51.364;12.358;2024-01-06T08:58:52;7.47;;;4.17;;
15381;SDS011;7789;51.364;12.358;2024-01-06T09:03:56;4.70;;;3.53;;
15381;SDS011;7789;51.364;12.358;2024-01-06T09:09:01;6.80;;;4.50;;
15381;SDS011;7789;51.364;12.358;2024-01-06T09:14:07;5.10;;;3.40;;
15381;SDS011;7789;51.364;12.358;2024-01-06T09:19:12;12.53;;;3.83;;
15381;SDS011;7789;51.364;12.358;2024-01-06T09:24:15;5.27;;;3.43;;
15381;SDS011;7789;51.364;12.358;2024-01-06T09:29:22;7.73;;;3.60;;
15381;SDS011;7789;51.364;12.358;2024-01-06T09:34:29;4.23;;;3.10;;
15381;SDS011;7789;51.364;12.358;2024-01-06T09:39:34;6.03;;;3.73;;
15381;SDS011;7789;51.364;12.358;2024-01-06T09:44:39;8.13;;;4.20;;
15381;SDS011;7789;51.364;12.358;2024-01-06T09:49:48;8.27;;;4.80;;
15381;SDS011;7789;51.364;12.358;2024-01-06T09:54:53;9.77;;;4.97;;
15381;SDS011;7789;51.364;12.358;2024-01-06T09:59:59;13.27;;;6.43;;
15381;SDS011;7789;51.364;12.358;2024-01-06T10:05:03;8.57;;;5.93;;
15381;SDS011;7789;51.364;12.358;2024-01-06T10:10:07;12.30;;;6.40;;
15381;SDS011;7789;51.364;12.358;2024-01-06T10:15:13;10.53;;;6.27;;
15381;SDS011;7789;51.364;12.358;2024-01-06T10:20:17;9.23;;;6.47;;
15381;SDS011;7789;51.364;12.358;2024-01-06T10:25:22;9.50;;;6.43;;
15381;SDS011;7789;51.364;12.358;2024-01-06T10:30:29;9.27;;;6.00;;
15381;SDS011;7789;51.364;12.358;2024-01-06T10:35:39;10.17;;;5.87;;
15381;SDS011;7789;51.364;12.358;2024-01-06T10:40:55;9.53;;;6.10;;
15381;SDS011;7789;51.364;12.358;2024-01-06T10:46:00;9.50;;;6.43;;
15381;SDS011;7789;51.364;12.358;2024-01-06T10:51:06;9.07;;;6.90;;
15381;SDS011;7789;51.364;12.358;2024-01-06T10:56:12;11.03;;;6.30;;
15381;SDS011;7789;51.364;12.358;2024-01-06T11:01:19;10.73;;;6.87;;
15381;SDS011;7789;51.364;12.358;2024-01-06T11:06:29;8.23;;;6.67;;
15381;SDS011;7789;51.364;12.358;2024-01-06T11:11:36;8.23;;;5.37;;
15381;SDS011;7789;51.364;12.358;2024-01-06T11:16:43;6.73;;;4.93;;
15381;SDS011;7789;51.364;12.358;2024-01-06T11:21:46;10.00;;;5.87;;
15381;SDS011;7789;51.364;12.358;2024-01-06T11:26:56;8.80;;;6.47;;
15381;SDS011;7789;51.364;12.358;2024-01-06T11:32:25;8.87;;;6.60;;
15381;SDS011;7789;51.364;12.358;2024-01-06T11:37:51;10.47;;;7.20;;
15381;SDS011;7789;51.364;12.358;2024-01-06T11:42:57;12.10;;;6.27;;
15381;SDS011;7789;51.364;12.358;2024-01-06T11:48:04;8.20;;;6.17;;
15381;SDS011;7789;51.364;12.358;2024-01-06T11:53:09;8.57;;;6.17;;
15381;SDS011;7789;51.364;12.358;2024-01-06T11:58:16;9.20;;;6.47;;
15381;SDS011;7789;51.364;12.358;2024-01-06T12:03:21;9.53;;;6.77;;
15381;SDS011;7789;51.364;12.358;2024-01-06T12:08:29;9.27;;;7.10;;
15381;SDS011;7789;51.364;12.358;2024-01-06T12:13:32;6.97;;;6.23;;
15381;SDS011;7789;51.364;12.358;2024-01-06T12:18:37;9.20;;;6.93;;
15381;SDS011;7789;51.364;12.358;2024-01-06T12:23:41;9.30;;;7.73;;
15381;SDS011;7789;51.364;12.358;2024-01-06T12:28:44;12.30;;;8.53;;
15381;SDS011;7789;51.364;12.358;2024-01-06T12:33:49;12.53;;;8.80;;
15381;SDS011;7789;51.364;12.358;2024-01-06T12:38:54;11.90;;;9.47;;
15381;SDS011;7789;51.364;12.358;2024-01-06T12:44:00;13.60;;;10.13;;
15381;SDS011;7789;51.364;12.358;2024-01-06T12:49:05;13.53;;;10.77;;
15381;SDS011;7789;51.364;12.358;2024-01-06T12:54:08;14.77;;;10.77;;
15381;SDS011;7789;51.364;12.358;2024-01-06T12:59:12;16.47;;;12.17;;
15381;SDS011;7789;51.364;12.358;2024-01-06T13:04:19;16.57;;;12.57;;
15381;SDS011;7789;51.364;12.358;2024-01-06T13:09:29;17.40;;;12.63;;
15381;SDS011;7789;51.364;12.358;2024-01-06T13:14:33;18.93;;;13.23;;
15381;SDS011;7789;51.364;12.358;2024-01-06T13:19:39;19.27;;;14.03;;
15381;SDS011;7789;51.364;12.358;2024-01-06T13:24:42;20.90;;;14.90;;
15381;SDS011;7789;51.364;12.358;2024-01-06T13:29:47;27.13;;;17.43;;
15381;SDS011;7789;51.364;12.358;2024-01-06T13:34:51;27.13;;;17.87;;
15381;SDS011;7789;51.364;12.358;2024-01-06T13:39:58;29.97;;;19.20;;
15381;SDS011;7789;51.364;12.358;2024-01-06T13:45:02;31.30;;;20.00;;
15381;SDS011;7789;51.364;12.358;2024-01-06T13:50:08;31.80;;;20.53;;
15381;SDS011;7789;51.364;12.358;2024-01-06T13:55:13;32.40;;;19.60;;
15381;SDS011;7789;51.364;12.358;2024-01-06T14:00:16;32.83;;;19.43;;
15381;SDS011;7789;51.364;12.358;2024-01-06T14:05:28;34.73;;;20.00;;
15381;SDS011;7789;51.364;12.358;2024-01-06T14:10:36;32.13;;;18.70;;
15381;SDS011;7789;51.364;12.358;2024-01-06T14:15:41;30.03;;;19.40;;
15381;SDS011;7789;51.364;12.358;2024-01-06T14:20:47;35.70;;;21.93;;
15381;SDS011;7789;51.364;12.358;2024-01-06T14:25:53;43.10;;;21.93;;
15381;SDS011;7789;51.364;12.358;2024-01-06T14:30:59;40.13;;;22.20;;
15381;SDS011;7789;51.364;12.358;2024-01-06T14:36:11;38.00;;;21.37;;
15381;SDS011;7789;51.364;12.358;2024-01-06T14:41:14;42.50;;;22.47;;
15381;SDS011;7789;51.364;12.358;2024-01-06T14:46:18;39.47;;;21.37;;
15381;SDS011;7789;51.364;12.358;2024-01-06T14:51:25;39.73;;;21.90;;
15381;SDS011;7789;51.364;12.358;2024-01-06T14:56:28;46.93;;;24.03;;
15381;SDS011;7789;51.364;12.358;2024-01-06T15:01:32;40.50;;;21.90;;
15381;SDS011;7789;51.364;12.358;2024-01-06T15:06:37;41.90;;;23.00;;
15381;SDS011;7789;51.364;12.358;2024-01-06T15:11:44;50.00;;;25.73;;
15381;SDS011;7789;51.364;12.358;2024-01-06T15:16:48;45.37;;;24.60;;
15381;SDS011;7789;51.364;12.358;2024-01-06T15:21:53;48.03;;;24.43;;
15381;SDS011;7789;51.364;12.358;2024-01-06T15:26:57;58.90;;;28.93;;
15381;SDS011;7789;51.364;12.358;2024-01-06T15:32:01;63.30;;;28.97;;
15381;SDS011;7789;51.364;12.358;2024-01-06T15:37:11;62.47;;;28.90;;
15381;SDS011;7789;51.364;12.358;2024-01-06T15:42:15;71.30;;;29.90;;
15381;SDS011;7789;51.364;12.358;2024-01-06T15:47:18;64.73;;;29.03;;
15381;SDS011;7789;51.364;12.358;2024-01-06T15:52:23;64.83;;;26.93;;
15381;SDS011;7789;51.364;12.358;2024-01-06T15:57:28;57.77;;;27.23;;
15381;SDS011;7789;51.364;12.358;2024-01-06T16:02:35;60.00;;;27.80;;
15381;SDS011;7789;51.364;12.358;2024-01-06T16:07:42;54.77;;;25.27;;
15381;SDS011;7789;51.364;12.358;2024-01-06T16:12:46;56.33;;;24.90;;
15381;SDS011;7789;51.364;12.358;2024-01-06T16:17:50;55.77;;;24.77;;
15381;SDS011;7789;51.364;12.358;2024-01-06T16:22:55;55.60;;;24.80;;
15381;SDS011;7789;51.364;12.358;2024-01-06T16:27:59;53.67;;;24.13;;
15381;SDS011;7789;51.364;12.358;2024-01-06T16:33:03;71.93;;;26.43;;
15381;SDS011;7789;51.364;12.358;2024-01-06T16:38:10;82.80;;;27.73;;
15381;SDS011;7789;51.364;12.358;2024-01-06T16:43:14;68.93;;;27.47;;
15381;SDS011;7789;51.364;12.358;2024-01-06T16:48:17;78.07;;;28.10;;
15381;SDS011;7789;51.364;12.358;2024-01-06T16:53:23;82.40;;;28.00;;
15381;SDS011;7789;51.364;12.358;2024-01-06T16:58:28;63.73;;;27.80;;
15381;SDS011;7789;51.364;12.358;2024-01-06T17:03:37;84.30;;;29.20;;
15381;SDS011;7789;51.364;12.358;2024-01-06T17:08:45;82.33;;;30.23;;
15381;SDS011;7789;51.364;12.358;2024-01-06T17:13:51;79.53;;;29.80;;
15381;SDS011;7789;51.364;12.358;2024-01-06T17:18:59;79.30;;;29.57;;
15381;SDS011;7789;51.364;12.358;2024-01-06T17:24:14;74.00;;;30.37;;
15381;SDS011;7789;51.364;12.358;2024-01-06T17:29:18;80.77;;;32.03;;
15381;SDS011;7789;51.364;12.358;2024-01-06T17:34:22;69.00;;;29.80;;
15381;SDS011;7789;51.364;12.358;2024-01-06T17:39:27;75.63;;;30.30;;
15381;SDS011;7789;51.364;12.358;2024-01-06T17:44:34;70.67;;;29.73;;
15381;SDS011;7789;51.364;12.358;2024-01-06T17:49:39;77.50;;;29.10;;
15381;SDS011;7789;51.364;12.358;2024-01-06T17:54:44;80.40;;;27.67;;
15381;SDS011;7789;51.364;12.358;2024-01-06T17:59:49;78.53;;;31.53;;
15381;SDS011;7789;51.364;12.358;2024-01-06T18:05:02;74.37;;;30.63;;
15381;SDS011;7789;51.364;12.358;2024-01-06T18:10:09;73.83;;;29.90;;
15381;SDS011;7789;51.364;12.358;2024-01-06T18:15:14;60.17;;;26.60;;
15381;SDS011;7789;51.364;12.358;2024-01-06T18:20:18;66.50;;;29.30;;
15381;SDS011;7789;51.364;12.358;2024-01-06T18:25:25;79.23;;;30.63;;
15381;SDS011;7789;51.364;12.358;2024-01-06T18:30:29;67.07;;;29.13;;
15381;SDS011;7789;51.364;12.358;2024-01-06T18:35:34;71.67;;;29.27;;
15381;SDS011;7789;51.364;12.358;2024-01-06T18:40:39;77.17;;;30.97;;
15381;SDS011;7789;51.364;12.358;2024-01-06T18:45:43;76.07;;;32.17;;
15381;SDS011;7789;51.364;12.358;2024-01-06T18:50:47;83.97;;;33.03;;
15381;SDS011;7789;51.364;12.358;2024-01-06T18:55:51;86.93;;;32.03;;
15381;SDS011;7789;51.364;12.358;2024-01-06T19:00:55;83.70;;;33.33;;
15381;SDS011;7789;51.364;12.358;2024-01-06T19:06:03;71.37;;;29.63;;
15381;SDS011;7789;51.364;12.358;2024-01-06T19:11:10;71.10;;;29.73;;
15381;SDS011;7789;51.364;12.358;2024-01-06T19:16:14;69.17;;;29.57;;
15381;SDS011;7789;51.364;12.358;2024-01-06T19:21:21;64.60;;;28.83;;
15381;SDS011;7789;51.364;12.358;2024-01-06T19:26:26;62.83;;;29.00;;
15381;SDS011;7789;51.364;12.358;2024-01-06T19:31:29;58.87;;;26.97;;
15381;SDS011;7789;51.364;12.358;2024-01-06T19:36:32;56.40;;;26.83;;
15381;SDS011;7789;51.364;12.358;2024-01-06T19:41:37;61.03;;;26.07;;
15381;SDS011;7789;51.364;12.358;2024-01-06T19:46:41;61.37;;;26.93;;
15381;SDS011;7789;51.364;12.358;2024-01-06T19:51:45;54.60;;;26.77;;
15381;SDS011;7789;51.364;12.358;2024-01-06T19:56:55;48.20;;;25.07;;
15381;SDS011;7789;51.364;12.358;2024-01-06T20:01:59;46.43;;;23.27;;
15381;SDS011;7789;51.364;12.358;2024-01-06T20:07:02;49.33;;;24.07;;
15381;SDS011;7789;51.364;12.358;2024-01-06T20:12:10;57.80;;;26.83;;
15381;SDS011;7789;51.364;12.358;2024-01-06T20:17:20;53.87;;;26.23;;
15381;SDS011;7789;51.364;12.358;2024-01-06T20:22:23;58.70;;;26.93;;
15381;SDS011;7789;51.364;12.358;2024-01-06T20:27:30;56.23;;;26.73;;
15381;SDS011;7789;51.364;12.358;2024-01-06T20:32:35;56.40;;;27.07;;
15381;SDS011;7789;51.364;12.358;2024-01-06T20:37:48;59.27;;;25.13;;
15381;SDS011;7789;51.364;12.358;2024-01-06T20:42:53;56.37;;;26.83;;
15381;SDS011;7789;51.364;12.358;2024-01-06T20:48:09;57.20;;;27.87;;
15381;SDS011;7789;51.364;12.358;2024-01-06T20:53:13;61.37;;;28.10;;
15381;SDS011;7789;51.364;12.358;2024-01-06T20:58:16;58.03;;;27.80;;
15381;SDS011;7789;51.364;12.358;2024-01-06T21:03:26;59.37;;;27.33;;
15381;SDS011;7789;51.364;12.358;2024-01-06T21:08:29;61.53;;;29.37;;
15381;SDS011;7789;51.364;12.358;2024-01-06T21:13:34;52.67;;;27.57;;
15381;SDS011;7789;51.364;12.358;2024-01-06T21:18:39;50.03;;;25.57;;
15381;SDS011;7789;51.364;12.358;2024-01-06T21:23:44;55.30;;;27.10;;
15381;SDS011;7789;51.364;12.358;2024-01-06T21:28:50;46.63;;;25.43;;
15381;SDS011;7789;51.364;12.358;2024-01-06T21:33:55;42.03;;;22.83;;
15381;SDS011;7789;51.364;12.358;2024-01-06T21:38:58;42.30;;;23.60;;
15381;SDS011;7789;51.364;12.358;2024-01-06T21:44:02;46.07;;;24.93;;
15381;SDS011;7789;51.364;12.358;2024-01-06T21:49:07;48.90;;;26.27;;
15381;SDS011;7789;51.364;12.358;2024-01-06T21:54:12;85.73;;;27.50;;
15381;SDS011;7789;51.364;12.358;2024-01-06T21:59:16;50.87;;;26.50;;
15381;SDS011;7789;51.364;12.358;2024-01-06T22:04:22;47.43;;;26.00;;
15381;SDS011;7789;51.364;12.358;2024-01-06T22:09:26;48.37;;;26.53;;
15381;SDS011;7789;51.364;12.358;2024-01-06T22:14:30;50.67;;;27.03;;
15381;SDS011;7789;51.364;12.358;2024-01-06T22:19:35;45.50;;;25.63;;
15381;SDS011;7789;51.364;12.358;2024-01-06T22:24:40;46.23;;;26.00;;
15381;SDS011;7789;51.364;12.358;2024-01-06T22:29:44;44.87;;;25.73;;
15381;SDS011;7789;51.364;12.358;2024-01-06T22:34:49;38.27;;;23.17;;
15381;SDS011;7789;51.364;12.358;2024-01-06T22:39:58;41.07;;;22.97;;
15381;SDS011;7789;51.364;12.358;2024-01-06T22:45:02;37.43;;;22.80;;
15381;SDS011;7789;51.364;12.358;2024-01-06T22:50:07;37.03;;;23.13;;
15381;SDS011;7789;51.364;12.358;2024-01-06T22:55:11;35.20;;;21.47;;
15381;SDS011;7789;51.364;12.358;2024-01-06T23:00:15;34.57;;;21.07;;
15381;SDS011;7789;51.364;12.358;2024-01-06T23:05:31;32.20;;;20.50;;
15381;SDS011;7789;51.364;12.358;2024-01-06T23:10:35;32.27;;;19.40;;
15381;SDS011;7789;51.364;12.358;2024-01-06T23:15:39;34.33;;;20.30;;
15381;SDS011;7789;51.364;12.358;2024-01-06T23:20:44;27.73;;;17.90;;
15381;SDS011;7789;51.364;12.358;2024-01-06T23:25:47;25.93;;;16.17;;
15381;SDS011;7789;51.364;12.358;2024-01-06T23:30:51;24.20;;;14.80;;
15381;SDS011;7789;51.364;12.358;2024-01-06T23:35:56;26.67;;;15.57;;
15381;SDS011;7789;51.364;12.358;2024-01-06T23:40:59;22.87;;;14.90;;
15381;SDS011;7789;51.364;12.358;2024-01-06T23:46:02;27.47;;;16.50;;
15381;SDS011;7789;51.364;12.358;2024-01-06T23:51:07;27.57;;;16.83;;
15381;SDS011;7789;51.364;12.358;2024-01-06T23:56:17;26.40;;;16.93;;
